Whitehorse, Canada
Current Conditions -  °F | °C
As of 12:00 AM on Sunday 26 Oct 2014 (Local Time) from CYXY Reporting Station
Light Snow Light Snow  
Wind Chill: 23°   Ceiling: 1100
Heat Index: 28°   Visibility: 6mi
Dew Point: 25°   Wind: 5mph
Humidity: 86%   Direction: 330°NNW
Pressure: 29.7"   Gusts: NA
Location:  60.72°N, 135.05°W
Report Text: CYXY 260700Z 33004KT 6SM -SN BKN011 OVC016 M02/M04 A2970 RMK SC7SC1 SLP099
Loading
Personal Weather Stations






























Interactive Weather Map
Tropical Storm Tracking
New forecast layout! Learn more

10-Day Weather Forecast

Advertisements
Track Severe Weather on mobile